createdAt,value
2018-02-23T00:00:22.468Z,65.00
2018-02-23T00:02:49.936Z,65.10
2018-02-23T00:05:17.390Z,65.40
2018-02-23T00:07:47.806Z,65.00
2018-02-23T00:10:16.076Z,64.90
2018-02-23T00:12:44.287Z,65.20
2018-02-23T00:15:11.752Z,65.20
2018-02-23T00:17:39.216Z,65.10
2018-02-23T00:20:06.679Z,65.40
2018-02-23T00:22:41.021Z,65.80
2018-02-23T00:25:08.487Z,65.20
2018-02-23T00:27:35.942Z,65.00
2018-02-23T00:30:03.412Z,65.10
2018-02-23T00:32:30.861Z,64.70
2018-02-23T00:34:58.324Z,65.10
2018-02-23T00:37:26.545Z,64.80
2018-02-23T00:39:54.014Z,64.80
2018-02-23T00:42:21.473Z,65.00
2018-02-23T00:44:48.952Z,64.90
2018-02-23T00:47:17.165Z,65.00
2018-02-23T00:49:44.636Z,65.00
2018-02-23T00:52:12.088Z,65.20
2018-02-23T00:54:39.563Z,65.30
2018-02-23T00:57:07.016Z,64.80
2018-02-23T00:59:34.478Z,65.40
2018-02-23T01:02:01.949Z,64.90
2018-02-23T01:04:29.428Z,65.10
2018-02-23T01:06:56.881Z,65.20
2018-02-23T01:09:24.355Z,65.00
2018-02-23T01:11:51.804Z,64.50
2018-02-23T01:14:19.282Z,65.00
2018-02-23T01:16:46.747Z,64.60
2018-02-23T01:19:14.211Z,64.40
2018-02-23T01:21:41.667Z,64.40
2018-02-23T01:24:09.125Z,64.40
2018-02-23T01:26:37.352Z,63.90
2018-02-23T01:29:05.586Z,64.30
2018-02-23T01:31:33.037Z,64.30
2018-02-23T01:34:00.505Z,64.00
2018-02-23T01:36:27.949Z,64.70
2018-02-23T01:38:55.436Z,64.70
2018-02-23T01:41:22.886Z,64.50
2018-02-23T01:43:50.346Z,65.30
2018-02-23T01:46:17.790Z,64.70
2018-02-23T01:48:45.261Z,64.80
2018-02-23T01:51:12.720Z,64.60
2018-02-23T01:53:40.197Z,64.70
2018-02-23T01:56:07.659Z,64.40
2018-02-23T01:58:35.114Z,64.40
2018-02-23T02:01:02.578Z,64.40
2018-02-23T02:03:30.027Z,63.80
2018-02-23T02:05:57.486Z,63.70
2018-02-23T02:08:24.946Z,63.80
2018-02-23T02:10:52.403Z,64.50
2018-02-23T02:13:19.866Z,64.50
2018-02-23T02:15:47.334Z,64.30
2018-02-23T02:18:14.810Z,64.70
2018-02-23T02:20:42.281Z,63.80
2018-02-23T02:23:09.742Z,64.40
2018-02-23T02:25:37.209Z,64.30
2018-02-23T02:28:04.668Z,64.20
2018-02-23T02:30:32.124Z,64.10
2018-02-23T02:32:59.582Z,64.70
2018-02-23T02:35:27.053Z,64.70
2018-02-23T02:37:54.506Z,65.00
2018-02-23T02:40:21.965Z,64.70
2018-02-23T02:42:49.426Z,65.20
2018-02-23T02:45:16.902Z,64.90
2018-02-23T02:47:44.357Z,64.80
2018-02-23T02:50:11.827Z,65.30
2018-02-23T02:52:39.290Z,65.10
2018-02-23T02:55:06.759Z,65.60
2018-02-23T02:57:34.210Z,65.60
2018-02-23T03:00:01.763Z,66.20
2018-02-23T03:02:29.210Z,65.40
2018-02-23T03:04:56.668Z,66.00
2018-02-23T03:07:24.132Z,65.10
2018-02-23T03:09:51.600Z,64.90
2018-02-23T03:12:19.062Z,65.00
2018-02-23T03:14:46.534Z,64.90
2018-02-23T03:17:13.999Z,64.90
2018-02-23T03:19:41.470Z,64.70
2018-02-23T03:22:08.940Z,65.10
2018-02-23T03:24:36.391Z,65.20
2018-02-23T03:27:03.858Z,65.60
2018-02-23T03:29:31.318Z,65.50
2018-02-23T03:31:59.548Z,65.80
2018-02-23T03:34:27.021Z,65.80
2018-02-23T03:36:54.495Z,65.30
2018-02-23T03:39:21.965Z,65.60
2018-02-23T03:41:49.435Z,65.30
2018-02-23T03:44:16.903Z,64.80
2018-02-23T03:46:44.361Z,65.40
2018-02-23T03:49:12.593Z,64.90
2018-02-23T03:51:40.821Z,65.20
2018-02-23T03:54:08.274Z,65.20
2018-02-23T03:56:35.745Z,65.20
2018-02-23T03:59:03.203Z,65.20
2018-02-23T04:01:31.444Z,65.20
2018-02-23T04:03:59.671Z,64.90
2018-02-23T04:06:27.133Z,64.80
2018-02-23T04:08:54.593Z,64.90
2018-02-23T04:11:22.058Z,65.00
2018-02-23T04:13:49.534Z,65.00
2018-02-23T04:16:17.023Z,65.00
2018-02-23T04:18:45.237Z,65.60
2018-02-23T04:21:12.701Z,65.10
2018-02-23T04:23:40.167Z,64.50
2018-02-23T04:26:07.659Z,65.20
2018-02-23T04:28:35.186Z,64.90
2018-02-23T04:31:02.607Z,65.10
2018-02-23T04:33:30.069Z,64.90
2018-02-23T04:35:57.529Z,64.70
2018-02-23T04:38:24.985Z,64.80
2018-02-23T04:40:52.460Z,65.10
2018-02-23T04:43:19.924Z,65.20
2018-02-23T04:45:47.405Z,64.80
2018-02-23T04:48:15.624Z,64.70
2018-02-23T04:50:43.094Z,64.70
2018-02-23T04:53:10.564Z,65.60
2018-02-23T04:55:38.112Z,64.80
2018-02-23T04:58:05.577Z,65.00
2018-02-23T05:00:33.023Z,65.10
2018-02-23T05:03:00.504Z,65.30
2018-02-23T05:05:27.967Z,65.40
2018-02-23T05:07:55.434Z,64.90
2018-02-23T05:10:22.894Z,65.00
2018-02-23T05:12:50.357Z,65.40
2018-02-23T05:15:17.817Z,65.10
2018-02-23T05:17:45.289Z,66.00
2018-02-23T05:20:12.773Z,65.50
2018-02-23T05:22:40.240Z,65.50
2018-02-23T05:25:07.716Z,65.60
2018-02-23T05:27:35.944Z,65.40
2018-02-23T05:30:03.411Z,65.40
2018-02-23T05:32:31.644Z,65.50
2018-02-23T05:34:59.871Z,65.80
2018-02-23T05:37:27.349Z,65.80
2018-02-23T05:39:54.821Z,65.40
2018-02-23T05:42:22.288Z,65.20
2018-02-23T05:44:49.748Z,65.60
2018-02-23T05:47:17.237Z,65.40
2018-02-23T05:49:45.458Z,65.70
2018-02-23T05:52:12.929Z,65.70
2018-02-23T05:54:40.461Z,65.60
2018-02-23T05:57:07.964Z,65.40
2018-02-23T05:59:35.373Z,65.50
2018-02-23T06:02:02.843Z,65.20
2018-02-23T06:04:30.305Z,65.30
2018-02-23T06:06:57.777Z,65.80
2018-02-23T06:09:25.237Z,65.80
2018-02-23T06:11:52.713Z,65.70
2018-02-23T06:14:20.179Z,65.80
2018-02-23T06:16:47.656Z,65.80
2018-02-23T06:19:20.708Z,65.90
2018-02-23T06:21:48.169Z,65.80
2018-02-23T06:24:15.647Z,66.00
2018-02-23T06:26:43.121Z,66.50
2018-02-23T06:29:10.581Z,66.40
2018-02-23T06:31:38.050Z,66.00
2018-02-23T06:34:05.513Z,65.80
2018-02-23T06:36:32.987Z,66.20
2018-02-23T06:39:00.500Z,66.30
2018-02-23T06:41:27.970Z,66.70
2018-02-23T06:43:55.440Z,66.40
2018-02-23T06:46:22.890Z,66.20
2018-02-23T06:48:50.371Z,66.50
2018-02-23T06:51:17.833Z,66.50
2018-02-23T06:53:45.304Z,66.50
2018-02-23T06:56:12.771Z,66.10
2018-02-23T06:58:40.244Z,66.20
2018-02-23T07:01:08.463Z,66.20
2018-02-23T07:03:36.702Z,66.80
2018-02-23T07:06:04.163Z,66.60
2018-02-23T07:08:31.628Z,66.50
2018-02-23T07:10:59.091Z,66.30
2018-02-23T07:13:26.584Z,66.30
2018-02-23T07:15:54.041Z,66.90
2018-02-23T07:18:21.508Z,66.80
2018-02-23T07:20:49.018Z,67.20
2018-02-23T07:23:16.489Z,67.80
2018-02-23T07:25:44.605Z,66.90
2018-02-23T07:28:12.059Z,66.80
2018-02-23T07:30:39.560Z,66.90
2018-02-23T07:33:07.798Z,66.80
2018-02-23T07:35:35.270Z,66.80
2018-02-23T07:38:02.736Z,66.90
2018-02-23T07:40:30.188Z,66.60
2018-02-23T07:42:57.656Z,66.70
2018-02-23T07:45:26.767Z,66.50
2018-02-23T07:47:54.239Z,67.10
2018-02-23T07:50:21.739Z,67.10
2018-02-23T07:52:49.940Z,66.60
2018-02-23T07:55:17.495Z,66.60
2018-02-23T07:57:44.968Z,67.30
2018-02-23T08:00:12.421Z,66.50
2018-02-23T08:02:39.889Z,66.70
2018-02-23T08:05:07.352Z,66.30
2018-02-23T08:07:34.820Z,66.30
2018-02-23T08:10:02.286Z,66.20
2018-02-23T08:12:29.744Z,66.20
2018-02-23T08:14:57.224Z,66.20
2018-02-23T08:17:24.705Z,66.40
2018-02-23T08:19:52.941Z,66.50
2018-02-23T08:22:20.405Z,66.50
2018-02-23T08:24:47.882Z,66.70
2018-02-23T08:27:15.343Z,66.70
2018-02-23T08:29:42.808Z,66.60
2018-02-23T08:32:10.268Z,66.70
2018-02-23T08:34:37.740Z,66.60
2018-02-23T08:37:05.203Z,66.60
2018-02-23T08:39:32.675Z,66.50
2018-02-23T08:42:00.128Z,66.20
2018-02-23T08:44:27.594Z,66.10
2018-02-23T08:46:55.053Z,66.60
2018-02-23T08:49:22.518Z,66.50
2018-02-23T08:51:49.979Z,66.00
2018-02-23T08:54:17.444Z,66.00
2018-02-23T08:56:44.905Z,65.90
2018-02-23T08:59:12.380Z,67.10
2018-02-23T09:01:39.837Z,66.60
2018-02-23T09:04:07.314Z,66.50
2018-02-23T09:06:34.765Z,66.10
2018-02-23T09:09:02.237Z,65.90
2018-02-23T09:11:30.458Z,66.00
2018-02-23T09:13:57.939Z,66.00
2018-02-23T09:16:25.394Z,66.30
2018-02-23T09:18:52.862Z,65.80
2018-02-23T09:21:20.327Z,66.20
2018-02-23T09:23:47.789Z,66.20
2018-02-23T09:26:15.255Z,66.00
2018-02-23T09:28:42.723Z,65.60
2018-02-23T09:31:10.173Z,66.00
2018-02-23T09:33:49.584Z,65.60
2018-02-23T09:36:17.033Z,65.50
2018-02-23T09:38:44.494Z,66.40
2018-02-23T09:41:11.959Z,65.70
2018-02-23T09:43:40.198Z,65.70
2018-02-23T09:46:07.656Z,65.70
2018-02-23T09:48:35.149Z,66.50
2018-02-23T09:51:03.370Z,65.90
2018-02-23T09:53:30.835Z,65.90
2018-02-23T09:55:58.316Z,66.50
2018-02-23T09:58:26.546Z,65.80
2018-02-23T10:00:54.020Z,65.80
2018-02-23T10:03:21.476Z,65.90
2018-02-23T10:05:48.949Z,65.40
2018-02-23T10:08:16.428Z,66.10
2018-02-23T10:10:43.900Z,66.40
2018-02-23T10:13:11.352Z,65.90
2018-02-23T10:15:38.826Z,66.20
2018-02-23T10:18:06.285Z,66.00
2018-02-23T10:20:34.566Z,66.20
2018-02-23T10:23:02.031Z,65.90
2018-02-23T10:25:29.511Z,66.00
2018-02-23T10:27:56.976Z,65.90
2018-02-23T10:30:24.441Z,65.90
2018-02-23T10:32:51.897Z,66.00
2018-02-23T10:35:19.379Z,66.40
2018-02-23T10:37:46.829Z,65.60
2018-02-23T10:40:14.295Z,66.40
2018-02-23T10:42:41.774Z,66.60
2018-02-23T10:45:10.010Z,66.20
2018-02-23T10:47:38.233Z,66.20
2018-02-23T10:50:06.473Z,66.30
2018-02-23T10:52:34.728Z,66.10
2018-02-23T10:55:02.192Z,66.10
2018-02-23T10:57:29.652Z,66.20
2018-02-23T10:59:57.116Z,66.40
2018-02-23T11:02:24.581Z,66.60
2018-02-23T11:04:52.053Z,66.40
2018-02-23T11:07:19.547Z,67.00
2018-02-23T11:09:46.986Z,66.30
2018-02-23T11:12:14.446Z,66.00
2018-02-23T11:14:41.909Z,66.00
2018-02-23T11:17:09.369Z,66.20
2018-02-23T11:19:36.841Z,65.60
2018-02-23T11:22:04.298Z,65.80
2018-02-23T11:24:31.768Z,65.80
2018-02-23T11:26:59.222Z,65.80
2018-02-23T11:29:26.688Z,65.90
2018-02-23T11:31:54.155Z,65.40
2018-02-23T11:34:21.603Z,65.90
2018-02-23T11:36:49.061Z,66.40
2018-02-23T11:39:16.520Z,66.70
2018-02-23T11:41:43.994Z,65.40
2018-02-23T11:44:11.456Z,65.50
2018-02-23T11:46:38.916Z,65.60
2018-02-23T11:49:06.386Z,65.70
2018-02-23T11:51:33.862Z,65.60
2018-02-23T11:54:01.314Z,65.50
2018-02-23T11:56:28.777Z,65.80
2018-02-23T11:58:56.235Z,66.70
2018-02-23T12:01:23.696Z,65.40
2018-02-23T12:03:51.149Z,65.30
2018-02-23T12:06:18.649Z,65.60
2018-02-23T12:08:46.106Z,65.30
2018-02-23T12:11:13.574Z,65.20
2018-02-23T12:13:41.040Z,65.30
2018-02-23T12:16:08.504Z,65.90
2018-02-23T12:18:35.953Z,66.20
2018-02-23T12:21:03.421Z,65.60
2018-02-23T12:23:30.873Z,65.40
2018-02-23T12:25:59.104Z,64.80
2018-02-23T12:28:26.599Z,64.80
2018-02-23T12:30:54.055Z,64.90
2018-02-23T12:33:21.508Z,64.70
2018-02-23T12:35:48.968Z,64.50
2018-02-23T12:38:16.444Z,64.90
2018-02-23T12:40:43.919Z,64.90
2018-02-23T12:43:11.367Z,65.20
2018-02-23T12:45:38.836Z,64.90
2018-02-23T12:48:06.291Z,65.60
2018-02-23T12:50:33.749Z,65.10
2018-02-23T12:53:01.200Z,64.80
2018-02-23T12:55:28.672Z,64.90
2018-02-23T12:57:56.131Z,65.00
2018-02-23T13:00:23.602Z,64.70
2018-02-23T13:02:51.065Z,64.60
2018-02-23T13:05:18.513Z,64.80
2018-02-23T13:07:45.989Z,64.70
2018-02-23T13:10:13.438Z,64.80
2018-02-23T13:12:40.899Z,65.10
2018-02-23T13:15:13.958Z,65.20
2018-02-23T13:17:42.184Z,64.90
2018-02-23T13:20:09.630Z,64.80
2018-02-23T13:22:37.100Z,65.20
2018-02-23T13:25:04.577Z,64.30
2018-02-23T13:27:32.041Z,64.70
2018-02-23T13:29:59.500Z,64.20
2018-02-23T13:32:26.973Z,64.30
2018-02-23T13:34:54.429Z,64.10
2018-02-23T13:37:21.883Z,64.90
2018-02-23T13:39:54.218Z,65.70
2018-02-23T13:42:23.249Z,65.00
2018-02-23T13:44:50.722Z,64.90
2018-02-23T13:47:18.176Z,64.90
2018-02-23T13:49:45.640Z,65.10
2018-02-23T13:52:13.931Z,65.00
2018-02-23T13:54:41.387Z,65.10
2018-02-23T13:57:08.849Z,65.60
2018-02-23T13:59:36.305Z,64.50
2018-02-23T14:02:03.768Z,65.70
2018-02-23T14:04:31.317Z,65.30
2018-02-23T14:07:04.508Z,65.70
2018-02-23T14:09:32.026Z,65.60
2018-02-23T14:11:59.446Z,65.50
2018-02-23T14:14:26.899Z,65.20
2018-02-23T14:16:54.362Z,65.40
2018-02-23T14:19:21.828Z,64.80
2018-02-23T14:21:49.285Z,65.50
2018-02-23T14:24:16.746Z,65.60
2018-02-23T14:26:44.213Z,66.00
2018-02-23T14:29:11.678Z,65.80
2018-02-23T14:31:39.167Z,66.20
2018-02-23T14:34:06.632Z,65.60
2018-02-23T14:36:34.095Z,65.70
2018-02-23T14:39:01.548Z,64.90
2018-02-23T14:41:29.025Z,65.00
2018-02-23T14:43:56.497Z,65.90
2018-02-23T14:46:23.951Z,66.40
2018-02-23T14:49:03.231Z,65.50
2018-02-23T14:51:31.440Z,66.00
2018-02-23T14:53:58.909Z,66.00
2018-02-23T14:56:26.369Z,65.20
2018-02-23T14:58:53.851Z,65.40
2018-02-23T15:01:21.300Z,65.60
2018-02-23T15:03:48.764Z,65.20
2018-02-23T15:06:16.226Z,65.20
2018-02-23T15:08:43.700Z,64.90
2018-02-23T15:11:11.152Z,65.70
2018-02-23T15:13:38.617Z,65.20
2018-02-23T15:16:06.075Z,64.80
2018-02-23T15:18:33.535Z,65.30
2018-02-23T15:21:01.014Z,64.70
2018-02-23T15:23:28.476Z,64.70
2018-02-23T15:25:55.928Z,65.00
2018-02-23T15:28:23.386Z,64.20
2018-02-23T15:31:02.766Z,64.40
2018-02-23T15:33:30.996Z,65.40
2018-02-23T15:35:58.467Z,65.30
2018-02-23T15:38:25.928Z,65.50
2018-02-23T15:40:53.382Z,65.20
2018-02-23T15:43:20.869Z,65.30
2018-02-23T15:45:48.312Z,64.70
2018-02-23T15:48:16.544Z,65.20
2018-02-23T15:53:46.195Z,64.40
2018-02-23T15:56:13.644Z,64.70
2018-02-23T15:58:44.588Z,64.50
2018-02-23T16:01:12.040Z,64.20
2018-02-23T16:03:39.507Z,64.10
2018-02-23T16:06:06.971Z,64.30
2018-02-23T16:08:34.446Z,64.50
2018-02-23T16:11:01.905Z,64.90
2018-02-23T16:13:29.366Z,64.60
2018-02-23T16:15:56.820Z,65.20
2018-02-23T16:18:24.290Z,64.70
2018-02-23T16:20:51.742Z,65.20
2018-02-23T16:23:19.192Z,64.60
2018-02-23T16:25:46.654Z,64.60
2018-02-23T16:28:14.895Z,64.50
2018-02-23T16:30:42.350Z,64.50
2018-02-23T16:33:09.814Z,64.60
2018-02-23T16:35:37.275Z,64.20
2018-02-23T16:38:04.743Z,65.00
2018-02-23T16:40:32.208Z,64.20
2018-02-23T16:42:59.677Z,64.50
2018-02-23T16:45:27.156Z,64.60
2018-02-23T16:47:55.394Z,65.30
2018-02-23T16:50:22.828Z,65.20
2018-02-23T16:52:50.293Z,64.90
2018-02-23T16:55:17.746Z,65.20
2018-02-23T16:57:45.210Z,65.20
2018-02-23T17:00:12.694Z,65.40
2018-02-23T17:02:40.141Z,65.40
2018-02-23T17:05:07.605Z,65.50
2018-02-23T17:07:35.044Z,65.60
2018-02-23T17:10:03.272Z,66.00
2018-02-23T17:12:30.732Z,65.80
2018-02-23T17:14:58.194Z,65.50
2018-02-23T17:17:25.648Z,65.80
2018-02-23T17:19:53.103Z,65.70
2018-02-23T17:22:20.565Z,66.30
2018-02-23T17:24:48.030Z,66.10
2018-02-23T17:27:15.485Z,66.40
2018-02-23T17:29:42.947Z,65.40
2018-02-23T17:32:10.406Z,65.30
2018-02-23T17:34:37.867Z,65.60
2018-02-23T17:37:05.328Z,66.20
2018-02-23T17:39:32.793Z,66.20
2018-02-23T17:42:00.244Z,65.70
2018-02-23T17:44:27.722Z,66.00
2018-02-23T17:46:55.173Z,65.70
2018-02-23T17:49:22.634Z,65.60
2018-02-23T17:51:50.091Z,65.40
2018-02-23T17:54:18.316Z,65.20
2018-02-23T17:56:45.768Z,65.20
2018-02-23T17:59:13.238Z,65.00
2018-02-23T18:01:40.691Z,65.30
2018-02-23T18:04:08.158Z,65.40
2018-02-23T18:06:35.637Z,65.70
2018-02-23T18:09:03.087Z,65.80
2018-02-23T18:11:30.545Z,65.90
2018-02-23T18:13:58.000Z,66.00
2018-02-23T18:16:25.452Z,66.00
2018-02-23T18:18:52.978Z,66.30
2018-02-23T18:21:20.372Z,66.40
2018-02-23T18:23:47.843Z,66.70
2018-02-23T18:26:15.286Z,66.70
2018-02-23T18:28:42.744Z,66.50
2018-02-23T18:31:10.212Z,66.90
2018-02-23T18:33:37.675Z,66.70
2018-02-23T18:36:05.145Z,66.70
2018-02-23T18:38:32.608Z,67.10
2018-02-23T18:41:00.076Z,66.90
2018-02-23T18:43:29.069Z,67.40
2018-02-23T18:45:56.539Z,66.80
2018-02-23T18:48:23.991Z,67.50
2018-02-23T18:50:51.455Z,66.20
2018-02-23T18:53:18.914Z,65.80
2018-02-23T18:55:46.382Z,65.60
2018-02-23T18:58:13.841Z,66.00
2018-02-23T19:00:41.310Z,65.40
2018-02-23T19:03:08.764Z,65.40
2018-02-23T19:05:36.232Z,65.90
2018-02-23T19:08:03.692Z,65.90
2018-02-23T19:10:31.156Z,65.80
2018-02-23T19:12:58.612Z,65.60
2018-02-23T19:15:26.075Z,65.70
2018-02-23T19:17:53.532Z,65.80
2018-02-23T19:20:20.989Z,66.20
2018-02-23T19:22:48.442Z,65.90
2018-02-23T19:25:16.683Z,65.90
2018-02-23T19:27:44.145Z,65.90
2018-02-23T19:30:11.599Z,65.80
2018-02-23T19:32:39.064Z,65.80
2018-02-23T19:35:06.523Z,65.80
2018-02-23T19:37:33.980Z,65.90
2018-02-23T19:40:01.490Z,65.50
2018-02-23T19:42:28.902Z,64.80
2018-02-23T19:44:56.398Z,64.80
2018-02-23T19:47:23.845Z,64.80
2018-02-23T19:49:51.321Z,65.00
2018-02-23T19:52:18.771Z,64.90
2018-02-23T19:54:46.234Z,65.50
2018-02-23T19:57:13.703Z,65.20
2018-02-23T19:59:41.155Z,65.00
2018-02-23T20:02:08.608Z,65.00
2018-02-23T20:04:36.069Z,64.60
2018-02-23T20:07:03.534Z,64.50
2018-02-23T20:09:30.980Z,64.90
2018-02-23T20:11:58.441Z,64.30
2018-02-23T20:14:25.899Z,64.20
2018-02-23T20:16:53.358Z,63.90
2018-02-23T20:19:20.813Z,64.20
2018-02-23T20:21:48.280Z,64.20
2018-02-23T20:24:15.762Z,64.50
2018-02-23T20:26:43.231Z,64.30
2018-02-23T20:29:10.690Z,64.60
2018-02-23T20:31:38.153Z,64.30
2018-02-23T20:34:05.614Z,64.60
2018-02-23T20:36:33.075Z,64.80
2018-02-23T20:39:00.530Z,65.10
2018-02-23T20:41:27.983Z,64.80
2018-02-23T20:43:55.444Z,64.50
2018-02-23T20:46:22.905Z,65.20
2018-02-23T20:48:50.368Z,64.90
2018-02-23T20:51:17.829Z,64.90
2018-02-23T20:53:45.285Z,64.70
2018-02-23T20:56:12.749Z,64.90
2018-02-23T20:58:40.222Z,65.00
2018-02-23T21:01:07.687Z,65.20
2018-02-23T21:03:35.139Z,65.20
2018-02-23T21:06:02.601Z,65.60
2018-02-23T21:08:30.059Z,66.50
2018-02-23T21:10:57.513Z,66.80
2018-02-23T21:13:24.969Z,66.50
2018-02-23T21:15:53.191Z,66.30
2018-02-23T21:18:20.673Z,66.30
2018-02-23T21:20:48.128Z,66.40
2018-02-23T21:23:15.580Z,66.50
2018-02-23T21:25:43.116Z,66.90
2018-02-23T21:28:10.559Z,66.40
2018-02-23T21:30:38.810Z,66.70
2018-02-23T21:33:06.247Z,66.70
2018-02-23T21:35:33.706Z,66.50
2018-02-23T21:38:01.169Z,66.70
2018-02-23T21:40:28.632Z,66.80
2018-02-23T21:42:56.121Z,66.80
2018-02-23T21:45:23.590Z,66.70
2018-02-23T21:47:51.048Z,66.80
2018-02-23T21:50:18.501Z,66.90
2018-02-23T21:52:45.979Z,67.70
2018-02-23T21:55:13.432Z,66.90
2018-02-23T21:57:40.893Z,66.90
2018-02-23T22:00:08.347Z,67.00
2018-02-23T22:02:35.808Z,67.20
2018-02-23T22:05:03.265Z,67.20
2018-02-23T22:07:30.734Z,67.10
2018-02-23T22:09:58.191Z,66.80
2018-02-23T22:12:25.648Z,67.30
2018-02-23T22:14:53.101Z,67.30
2018-02-23T22:17:20.562Z,67.50
2018-02-23T22:19:48.010Z,67.60
2018-02-23T22:22:15.474Z,67.80
2018-02-23T22:24:42.943Z,68.00
2018-02-23T22:27:10.380Z,67.80
2018-02-23T22:29:37.858Z,67.80
2018-02-23T22:32:05.324Z,68.00
2018-02-23T22:34:32.784Z,68.30
2018-02-23T22:37:00.245Z,68.10
2018-02-23T22:39:27.704Z,67.90
2018-02-23T22:41:55.164Z,68.00
2018-02-23T22:44:22.617Z,67.80
2018-02-23T22:46:50.072Z,68.10
2018-02-23T22:49:18.296Z,68.60
2018-02-23T22:51:46.555Z,68.30
2018-02-23T22:54:13.992Z,68.40
2018-02-23T22:56:42.220Z,69.00
2018-02-23T22:59:09.688Z,68.90
2018-02-23T23:01:37.150Z,69.10
2018-02-23T23:04:04.600Z,69.20
2018-02-23T23:06:32.069Z,69.00
2018-02-23T23:08:59.528Z,68.90
2018-02-23T23:11:26.976Z,69.30
2018-02-23T23:13:55.206Z,68.60
2018-02-23T23:16:22.660Z,68.60
2018-02-23T23:18:50.113Z,68.90
2018-02-23T23:21:17.564Z,69.00
2018-02-23T23:23:45.034Z,68.40
2018-02-23T23:26:12.493Z,68.10
2018-02-23T23:28:39.954Z,68.60
2018-02-23T23:31:07.392Z,68.60
2018-02-23T23:33:34.867Z,68.30
2018-02-23T23:36:02.331Z,68.50
2018-02-23T23:38:29.790Z,68.10
2018-02-23T23:40:57.238Z,68.30
2018-02-23T23:43:25.469Z,68.60
2018-02-23T23:45:52.944Z,68.40
2018-02-23T23:48:20.403Z,68.60
2018-02-23T23:50:48.629Z,68.10
2018-02-23T23:53:16.873Z,68.20
2018-02-23T23:55:44.313Z,68.20
2018-02-23T23:58:11.768Z,68.20
